sensor_id;sensor_type;location;lat;lon;timestamp;P1;durP1;ratioP1;P2;durP2;ratioP2
56830;SDS011;42713;42.676;23.352;2023-04-24T00:02:22;12.40;;;4.93;;
56830;SDS011;42713;42.676;23.352;2023-04-24T00:04:48;12.85;;;4.55;;
56830;SDS011;42713;42.676;23.352;2023-04-24T00:07:14;11.77;;;4.50;;
56830;SDS011;42713;42.676;23.352;2023-04-24T00:09:41;12.75;;;4.68;;
56830;SDS011;42713;42.676;23.352;2023-04-24T00:12:08;13.50;;;5.03;;
56830;SDS011;42713;42.676;23.352;2023-04-24T00:14:34;10.65;;;4.68;;
56830;SDS011;42713;42.676;23.352;2023-04-24T00:17:00;11.77;;;4.45;;
56830;SDS011;42713;42.676;23.352;2023-04-24T00:19:27;15.20;;;5.10;;
56830;SDS011;42713;42.676;23.352;2023-04-24T00:21:53;11.15;;;5.10;;
56830;SDS011;42713;42.676;23.352;2023-04-24T00:24:19;14.52;;;4.95;;
56830;SDS011;42713;42.676;23.352;2023-04-24T00:26:45;12.50;;;5.40;;
56830;SDS011;42713;42.676;23.352;2023-04-24T00:29:10;8.77;;;4.50;;
56830;SDS011;42713;42.676;23.352;2023-04-24T00:31:36;9.85;;;4.05;;
56830;SDS011;42713;42.676;23.352;2023-04-24T00:34:01;11.85;;;4.35;;
56830;SDS011;42713;42.676;23.352;2023-04-24T00:36:27;11.98;;;4.75;;
56830;SDS011;42713;42.676;23.352;2023-04-24T00:38:55;9.30;;;3.85;;
56830;SDS011;42713;42.676;23.352;2023-04-24T00:41:21;14.05;;;4.60;;
56830;SDS011;42713;42.676;23.352;2023-04-24T00:43:47;9.73;;;4.00;;
56830;SDS011;42713;42.676;23.352;2023-04-24T00:46:13;9.70;;;4.20;;
56830;SDS011;42713;42.676;23.352;2023-04-24T00:48:39;9.38;;;4.38;;
56830;SDS011;42713;42.676;23.352;2023-04-24T00:51:05;9.70;;;4.10;;
56830;SDS011;42713;42.676;23.352;2023-04-24T00:53:31;13.77;;;4.35;;
56830;SDS011;42713;42.676;23.352;2023-04-24T00:55:57;10.63;;;4.57;;
56830;SDS011;42713;42.676;23.352;2023-04-24T00:58:23;10.27;;;4.38;;
56830;SDS011;42713;42.676;23.352;2023-04-24T01:00:50;11.60;;;4.32;;
56830;SDS011;42713;42.676;23.352;2023-04-24T01:03:19;10.15;;;4.20;;
56830;SDS011;42713;42.676;23.352;2023-04-24T01:05:46;8.75;;;4.38;;
56830;SDS011;42713;42.676;23.352;2023-04-24T01:08:13;11.13;;;4.03;;
56830;SDS011;42713;42.676;23.352;2023-04-24T01:10:40;10.20;;;4.10;;
56830;SDS011;42713;42.676;23.352;2023-04-24T01:13:07;11.07;;;4.53;;
56830;SDS011;42713;42.676;23.352;2023-04-24T01:15:33;9.30;;;4.00;;
56830;SDS011;42713;42.676;23.352;2023-04-24T01:17:59;10.85;;;4.47;;
56830;SDS011;42713;42.676;23.352;2023-04-24T01:20:25;12.27;;;4.28;;
56830;SDS011;42713;42.676;23.352;2023-04-24T01:22:51;12.13;;;4.38;;
56830;SDS011;42713;42.676;23.352;2023-04-24T01:25:17;11.52;;;4.60;;
56830;SDS011;42713;42.676;23.352;2023-04-24T01:27:42;13.10;;;4.50;;
56830;SDS011;42713;42.676;23.352;2023-04-24T01:30:08;12.35;;;4.82;;
56830;SDS011;42713;42.676;23.352;2023-04-24T01:32:35;11.40;;;4.22;;
56830;SDS011;42713;42.676;23.352;2023-04-24T01:35:02;10.65;;;3.95;;
56830;SDS011;42713;42.676;23.352;2023-04-24T01:37:28;8.77;;;3.72;;
56830;SDS011;42713;42.676;23.352;2023-04-24T01:39:53;7.75;;;3.97;;
56830;SDS011;42713;42.676;23.352;2023-04-24T01:42:19;9.05;;;4.00;;
56830;SDS011;42713;42.676;23.352;2023-04-24T01:44:44;12.35;;;4.25;;
56830;SDS011;42713;42.676;23.352;2023-04-24T01:47:10;10.70;;;4.40;;
56830;SDS011;42713;42.676;23.352;2023-04-24T01:49:37;11.90;;;4.10;;
56830;SDS011;42713;42.676;23.352;2023-04-24T01:52:03;9.13;;;4.20;;
56830;SDS011;42713;42.676;23.352;2023-04-24T01:54:29;10.18;;;4.35;;
56830;SDS011;42713;42.676;23.352;2023-04-24T01:56:55;11.90;;;4.05;;
56830;SDS011;42713;42.676;23.352;2023-04-24T01:59:20;11.48;;;4.47;;
56830;SDS011;42713;42.676;23.352;2023-04-24T02:01:48;8.32;;;4.53;;
56830;SDS011;42713;42.676;23.352;2023-04-24T02:04:14;10.38;;;4.10;;
56830;SDS011;42713;42.676;23.352;2023-04-24T02:06:40;9.13;;;3.88;;
56830;SDS011;42713;42.676;23.352;2023-04-24T02:09:06;10.32;;;4.10;;
56830;SDS011;42713;42.676;23.352;2023-04-24T02:11:31;13.75;;;4.32;;
56830;SDS011;42713;42.676;23.352;2023-04-24T02:13:57;10.23;;;4.32;;
56830;SDS011;42713;42.676;23.352;2023-04-24T02:16:22;12.85;;;4.78;;
56830;SDS011;42713;42.676;23.352;2023-04-24T02:18:48;9.43;;;3.60;;
56830;SDS011;42713;42.676;23.352;2023-04-24T02:21:13;9.93;;;4.93;;
56830;SDS011;42713;42.676;23.352;2023-04-24T02:23:39;11.45;;;4.60;;
56830;SDS011;42713;42.676;23.352;2023-04-24T02:26:04;10.63;;;4.43;;
56830;SDS011;42713;42.676;23.352;2023-04-24T02:28:30;9.48;;;4.72;;
56830;SDS011;42713;42.676;23.352;2023-04-24T02:30:55;11.77;;;4.43;;
56830;SDS011;42713;42.676;23.352;2023-04-24T02:33:21;11.30;;;4.70;;
56830;SDS011;42713;42.676;23.352;2023-04-24T02:35:46;12.50;;;4.97;;
56830;SDS011;42713;42.676;23.352;2023-04-24T02:38:11;15.63;;;5.43;;
56830;SDS011;42713;42.676;23.352;2023-04-24T02:40:37;10.32;;;5.00;;
56830;SDS011;42713;42.676;23.352;2023-04-24T02:43:02;10.68;;;5.20;;
56830;SDS011;42713;42.676;23.352;2023-04-24T02:45:28;11.18;;;4.70;;
56830;SDS011;42713;42.676;23.352;2023-04-24T02:47:53;11.35;;;4.60;;
56830;SDS011;42713;42.676;23.352;2023-04-24T02:50:19;12.73;;;4.53;;
56830;SDS011;42713;42.676;23.352;2023-04-24T02:52:44;11.65;;;4.97;;
56830;SDS011;42713;42.676;23.352;2023-04-24T02:55:10;12.52;;;4.45;;
56830;SDS011;42713;42.676;23.352;2023-04-24T02:57:35;10.35;;;4.75;;
56830;SDS011;42713;42.676;23.352;2023-04-24T03:00:00;12.38;;;4.68;;
56830;SDS011;42713;42.676;23.352;2023-04-24T03:02:26;13.10;;;5.55;;
56830;SDS011;42713;42.676;23.352;2023-04-24T03:04:51;9.38;;;4.28;;
56830;SDS011;42713;42.676;23.352;2023-04-24T03:07:17;11.23;;;5.40;;
56830;SDS011;42713;42.676;23.352;2023-04-24T03:09:45;13.38;;;5.53;;
56830;SDS011;42713;42.676;23.352;2023-04-24T03:12:11;13.00;;;5.50;;
56830;SDS011;42713;42.676;23.352;2023-04-24T03:14:36;12.50;;;5.35;;
56830;SDS011;42713;42.676;23.352;2023-04-24T03:17:02;13.40;;;6.13;;
56830;SDS011;42713;42.676;23.352;2023-04-24T03:19:27;14.40;;;5.38;;
56830;SDS011;42713;42.676;23.352;2023-04-24T03:21:52;13.75;;;6.50;;
56830;SDS011;42713;42.676;23.352;2023-04-24T03:24:18;15.05;;;5.97;;
56830;SDS011;42713;42.676;23.352;2023-04-24T03:26:43;12.02;;;5.55;;
56830;SDS011;42713;42.676;23.352;2023-04-24T03:29:10;13.70;;;5.68;;
56830;SDS011;42713;42.676;23.352;2023-04-24T03:31:36;14.68;;;6.00;;
56830;SDS011;42713;42.676;23.352;2023-04-24T03:34:01;13.98;;;5.40;;
56830;SDS011;42713;42.676;23.352;2023-04-24T03:36:26;12.10;;;6.03;;
56830;SDS011;42713;42.676;23.352;2023-04-24T03:38:52;12.05;;;5.32;;
56830;SDS011;42713;42.676;23.352;2023-04-24T03:41:18;13.02;;;5.45;;
56830;SDS011;42713;42.676;23.352;2023-04-24T03:43:44;12.95;;;5.47;;
56830;SDS011;42713;42.676;23.352;2023-04-24T03:46:09;16.75;;;7.22;;
56830;SDS011;42713;42.676;23.352;2023-04-24T03:48:35;17.20;;;5.82;;
56830;SDS011;42713;42.676;23.352;2023-04-24T03:51:00;10.88;;;5.00;;
56830;SDS011;42713;42.676;23.352;2023-04-24T03:53:26;12.15;;;5.60;;
56830;SDS011;42713;42.676;23.352;2023-04-24T03:55:52;15.27;;;6.15;;
56830;SDS011;42713;42.676;23.352;2023-04-24T03:58:18;9.93;;;5.45;;
56830;SDS011;42713;42.676;23.352;2023-04-24T04:00:44;10.98;;;5.28;;
56830;SDS011;42713;42.676;23.352;2023-04-24T04:03:09;14.20;;;5.55;;
56830;SDS011;42713;42.676;23.352;2023-04-24T04:05:35;14.13;;;5.80;;
56830;SDS011;42713;42.676;23.352;2023-04-24T04:08:00;14.65;;;5.20;;
56830;SDS011;42713;42.676;23.352;2023-04-24T04:10:25;18.80;;;5.53;;
56830;SDS011;42713;42.676;23.352;2023-04-24T04:12:51;13.63;;;5.20;;
56830;SDS011;42713;42.676;23.352;2023-04-24T04:15:17;14.95;;;5.38;;
56830;SDS011;42713;42.676;23.352;2023-04-24T04:17:45;16.55;;;5.50;;
56830;SDS011;42713;42.676;23.352;2023-04-24T04:20:11;16.35;;;5.20;;
56830;SDS011;42713;42.676;23.352;2023-04-24T04:22:36;14.57;;;5.53;;
56830;SDS011;42713;42.676;23.352;2023-04-24T04:25:03;16.48;;;5.80;;
56830;SDS011;42713;42.676;23.352;2023-04-24T04:27:29;14.88;;;5.55;;
56830;SDS011;42713;42.676;23.352;2023-04-24T04:30:00;14.32;;;5.45;;
56830;SDS011;42713;42.676;23.352;2023-04-24T04:32:33;10.48;;;4.30;;
56830;SDS011;42713;42.676;23.352;2023-04-24T04:34:59;13.98;;;4.85;;
56830;SDS011;42713;42.676;23.352;2023-04-24T04:37:31;14.23;;;5.72;;
56830;SDS011;42713;42.676;23.352;2023-04-24T04:40:00;10.38;;;4.40;;
56830;SDS011;42713;42.676;23.352;2023-04-24T04:42:26;12.55;;;5.00;;
56830;SDS011;42713;42.676;23.352;2023-04-24T04:44:54;19.33;;;5.10;;
56830;SDS011;42713;42.676;23.352;2023-04-24T04:47:22;13.10;;;4.55;;
56830;SDS011;42713;42.676;23.352;2023-04-24T04:49:48;12.60;;;4.35;;
56830;SDS011;42713;42.676;23.352;2023-04-24T04:52:14;10.32;;;4.25;;
56830;SDS011;42713;42.676;23.352;2023-04-24T04:54:39;9.13;;;3.72;;
56830;SDS011;42713;42.676;23.352;2023-04-24T04:57:05;13.00;;;4.00;;
56830;SDS011;42713;42.676;23.352;2023-04-24T04:59:31;12.48;;;3.78;;
56830;SDS011;42713;42.676;23.352;2023-04-24T05:01:56;11.32;;;4.20;;
56830;SDS011;42713;42.676;23.352;2023-04-24T05:04:22;13.48;;;4.45;;
56830;SDS011;42713;42.676;23.352;2023-04-24T05:06:47;10.38;;;3.90;;
56830;SDS011;42713;42.676;23.352;2023-04-24T05:09:12;15.82;;;4.43;;
56830;SDS011;42713;42.676;23.352;2023-04-24T05:11:38;16.48;;;4.70;;
56830;SDS011;42713;42.676;23.352;2023-04-24T05:14:03;10.98;;;4.18;;
56830;SDS011;42713;42.676;23.352;2023-04-24T05:16:29;11.88;;;4.90;;
56830;SDS011;42713;42.676;23.352;2023-04-24T05:18:56;10.85;;;4.28;;
56830;SDS011;42713;42.676;23.352;2023-04-24T05:21:21;15.20;;;4.88;;
56830;SDS011;42713;42.676;23.352;2023-04-24T05:23:46;11.63;;;4.50;;
56830;SDS011;42713;42.676;23.352;2023-04-24T05:26:13;11.27;;;4.95;;
56830;SDS011;42713;42.676;23.352;2023-04-24T05:28:38;10.38;;;5.32;;
56830;SDS011;42713;42.676;23.352;2023-04-24T05:31:04;11.50;;;5.05;;
56830;SDS011;42713;42.676;23.352;2023-04-24T05:33:29;14.90;;;5.15;;
56830;SDS011;42713;42.676;23.352;2023-04-24T05:35:55;12.98;;;5.55;;
56830;SDS011;42713;42.676;23.352;2023-04-24T05:38:21;13.63;;;5.13;;
56830;SDS011;42713;42.676;23.352;2023-04-24T05:40:46;9.82;;;4.63;;
56830;SDS011;42713;42.676;23.352;2023-04-24T05:43:12;14.95;;;5.07;;
56830;SDS011;42713;42.676;23.352;2023-04-24T05:45:38;16.80;;;6.22;;
56830;SDS011;42713;42.676;23.352;2023-04-24T05:48:03;13.23;;;5.97;;
56830;SDS011;42713;42.676;23.352;2023-04-24T05:50:29;12.70;;;5.72;;
56830;SDS011;42713;42.676;23.352;2023-04-24T05:52:55;14.20;;;6.22;;
56830;SDS011;42713;42.676;23.352;2023-04-24T05:55:23;11.93;;;5.82;;
56830;SDS011;42713;42.676;23.352;2023-04-24T05:57:52;13.45;;;6.60;;
56830;SDS011;42713;42.676;23.352;2023-04-24T06:00:18;14.13;;;6.70;;
56830;SDS011;42713;42.676;23.352;2023-04-24T06:02:44;14.90;;;6.40;;
56830;SDS011;42713;42.676;23.352;2023-04-24T06:05:11;20.00;;;7.10;;
56830;SDS011;42713;42.676;23.352;2023-04-24T06:07:36;17.75;;;8.20;;
56830;SDS011;42713;42.676;23.352;2023-04-24T06:10:02;15.55;;;7.40;;
56830;SDS011;42713;42.676;23.352;2023-04-24T06:12:27;19.30;;;7.40;;
56830;SDS011;42713;42.676;23.352;2023-04-24T06:14:53;15.73;;;8.77;;
56830;SDS011;42713;42.676;23.352;2023-04-24T06:17:20;20.05;;;8.88;;
56830;SDS011;42713;42.676;23.352;2023-04-24T06:19:46;21.40;;;8.43;;
56830;SDS011;42713;42.676;23.352;2023-04-24T06:22:12;19.38;;;7.63;;
56830;SDS011;42713;42.676;23.352;2023-04-24T06:24:40;23.77;;;7.72;;
56830;SDS011;42713;42.676;23.352;2023-04-24T06:27:06;14.95;;;7.32;;
56830;SDS011;42713;42.676;23.352;2023-04-24T06:29:32;18.08;;;7.18;;
56830;SDS011;42713;42.676;23.352;2023-04-24T06:31:58;13.75;;;7.30;;
56830;SDS011;42713;42.676;23.352;2023-04-24T06:34:23;17.75;;;7.13;;
56830;SDS011;42713;42.676;23.352;2023-04-24T06:36:49;18.55;;;7.05;;
56830;SDS011;42713;42.676;23.352;2023-04-24T06:39:15;16.98;;;6.68;;
56830;SDS011;42713;42.676;23.352;2023-04-24T06:41:40;16.15;;;6.65;;
56830;SDS011;42713;42.676;23.352;2023-04-24T06:44:06;12.40;;;6.75;;
56830;SDS011;42713;42.676;23.352;2023-04-24T06:46:31;15.50;;;6.90;;
56830;SDS011;42713;42.676;23.352;2023-04-24T06:48:56;13.95;;;6.90;;
56830;SDS011;42713;42.676;23.352;2023-04-24T06:51:22;16.55;;;6.65;;
56830;SDS011;42713;42.676;23.352;2023-04-24T06:53:48;14.23;;;6.47;;
56830;SDS011;42713;42.676;23.352;2023-04-24T06:56:15;20.38;;;7.45;;
56830;SDS011;42713;42.676;23.352;2023-04-24T06:58:40;21.80;;;7.30;;
56830;SDS011;42713;42.676;23.352;2023-04-24T07:01:06;18.90;;;7.50;;
56830;SDS011;42713;42.676;23.352;2023-04-24T07:03:35;15.45;;;6.60;;
56830;SDS011;42713;42.676;23.352;2023-04-24T07:06:00;19.00;;;6.75;;
56830;SDS011;42713;42.676;23.352;2023-04-24T07:08:26;14.32;;;7.28;;
56830;SDS011;42713;42.676;23.352;2023-04-24T07:10:51;16.83;;;6.68;;
56830;SDS011;42713;42.676;23.352;2023-04-24T07:13:17;15.88;;;7.18;;
56830;SDS011;42713;42.676;23.352;2023-04-24T07:15:42;17.73;;;7.40;;
56830;SDS011;42713;42.676;23.352;2023-04-24T07:18:08;16.75;;;7.18;;
56830;SDS011;42713;42.676;23.352;2023-04-24T07:20:34;18.05;;;7.60;;
56830;SDS011;42713;42.676;23.352;2023-04-24T07:22:59;15.88;;;7.18;;
56830;SDS011;42713;42.676;23.352;2023-04-24T07:25:25;14.55;;;6.82;;
56830;SDS011;42713;42.676;23.352;2023-04-24T07:27:50;13.38;;;6.88;;
56830;SDS011;42713;42.676;23.352;2023-04-24T07:30:17;13.32;;;6.65;;
56830;SDS011;42713;42.676;23.352;2023-04-24T07:32:42;12.88;;;6.47;;
56830;SDS011;42713;42.676;23.352;2023-04-24T07:35:09;15.77;;;7.13;;
56830;SDS011;42713;42.676;23.352;2023-04-24T07:37:34;14.98;;;6.78;;
56830;SDS011;42713;42.676;23.352;2023-04-24T07:40:00;11.40;;;6.63;;
56830;SDS011;42713;42.676;23.352;2023-04-24T07:42:26;15.80;;;7.18;;
56830;SDS011;42713;42.676;23.352;2023-04-24T07:44:51;14.98;;;7.03;;
56830;SDS011;42713;42.676;23.352;2023-04-24T07:47:17;15.10;;;6.93;;
56830;SDS011;42713;42.676;23.352;2023-04-24T07:49:42;16.63;;;6.30;;
56830;SDS011;42713;42.676;23.352;2023-04-24T07:52:08;14.93;;;6.10;;
56830;SDS011;42713;42.676;23.352;2023-04-24T07:54:33;14.32;;;6.25;;
56830;SDS011;42713;42.676;23.352;2023-04-24T07:56:59;15.93;;;6.88;;
56830;SDS011;42713;42.676;23.352;2023-04-24T07:59:25;19.48;;;6.80;;
56830;SDS011;42713;42.676;23.352;2023-04-24T08:01:51;14.68;;;6.38;;
56830;SDS011;42713;42.676;23.352;2023-04-24T08:04:17;14.00;;;7.22;;
56830;SDS011;42713;42.676;23.352;2023-04-24T08:06:43;17.13;;;6.00;;
56830;SDS011;42713;42.676;23.352;2023-04-24T08:09:09;17.63;;;6.97;;
56830;SDS011;42713;42.676;23.352;2023-04-24T08:11:34;14.43;;;5.90;;
56830;SDS011;42713;42.676;23.352;2023-04-24T08:14:00;11.27;;;5.75;;
56830;SDS011;42713;42.676;23.352;2023-04-24T08:16:25;17.52;;;5.47;;
56830;SDS011;42713;42.676;23.352;2023-04-24T08:18:51;11.65;;;5.70;;
56830;SDS011;42713;42.676;23.352;2023-04-24T08:21:18;14.38;;;6.18;;
56830;SDS011;42713;42.676;23.352;2023-04-24T08:23:44;12.82;;;5.97;;
56830;SDS011;42713;42.676;23.352;2023-04-24T08:26:11;12.77;;;5.93;;
56830;SDS011;42713;42.676;23.352;2023-04-24T08:28:37;13.00;;;5.68;;
56830;SDS011;42713;42.676;23.352;2023-04-24T08:31:02;14.55;;;5.75;;
56830;SDS011;42713;42.676;23.352;2023-04-24T08:33:28;11.98;;;5.47;;
56830;SDS011;42713;42.676;23.352;2023-04-24T08:38:25;12.77;;;5.28;;
56830;SDS011;42713;42.676;23.352;2023-04-24T08:40:51;15.55;;;5.95;;
56830;SDS011;42713;42.676;23.352;2023-04-24T08:43:17;12.38;;;5.28;;
56830;SDS011;42713;42.676;23.352;2023-04-24T08:45:43;15.23;;;5.57;;
56830;SDS011;42713;42.676;23.352;2023-04-24T08:48:09;15.27;;;5.18;;
56830;SDS011;42713;42.676;23.352;2023-04-24T08:50:35;10.55;;;4.72;;
56830;SDS011;42713;42.676;23.352;2023-04-24T08:53:02;11.93;;;4.60;;
56830;SDS011;42713;42.676;23.352;2023-04-24T08:55:27;11.15;;;4.90;;
56830;SDS011;42713;42.676;23.352;2023-04-24T08:57:55;13.70;;;4.50;;
56830;SDS011;42713;42.676;23.352;2023-04-24T09:00:21;12.90;;;5.10;;
56830;SDS011;42713;42.676;23.352;2023-04-24T09:02:48;12.10;;;5.07;;
56830;SDS011;42713;42.676;23.352;2023-04-24T09:05:16;14.80;;;5.38;;
56830;SDS011;42713;42.676;23.352;2023-04-24T09:07:44;10.98;;;4.28;;
56830;SDS011;42713;42.676;23.352;2023-04-24T09:10:14;9.80;;;4.70;;
56830;SDS011;42713;42.676;23.352;2023-04-24T09:12:40;15.50;;;5.35;;
56830;SDS011;42713;42.676;23.352;2023-04-24T09:15:06;11.18;;;4.65;;
56830;SDS011;42713;42.676;23.352;2023-04-24T09:17:33;13.55;;;4.30;;
56830;SDS011;42713;42.676;23.352;2023-04-24T09:20:00;10.02;;;4.65;;
56830;SDS011;42713;42.676;23.352;2023-04-24T09:22:28;11.65;;;4.40;;
56830;SDS011;42713;42.676;23.352;2023-04-24T09:25:02;12.75;;;4.53;;
56830;SDS011;42713;42.676;23.352;2023-04-24T09:27:30;12.25;;;4.47;;
56830;SDS011;42713;42.676;23.352;2023-04-24T09:29:57;8.77;;;3.85;;
56830;SDS011;42713;42.676;23.352;2023-04-24T09:32:24;10.68;;;4.78;;
56830;SDS011;42713;42.676;23.352;2023-04-24T09:35:12;9.43;;;4.22;;
56830;SDS011;42713;42.676;23.352;2023-04-24T09:37:38;12.57;;;4.35;;
56830;SDS011;42713;42.676;23.352;2023-04-24T09:42:33;12.77;;;4.10;;
56830;SDS011;42713;42.676;23.352;2023-04-24T09:44:59;9.20;;;4.13;;
56830;SDS011;42713;42.676;23.352;2023-04-24T09:47:25;11.18;;;4.20;;
56830;SDS011;42713;42.676;23.352;2023-04-24T09:49:50;10.55;;;3.85;;
56830;SDS011;42713;42.676;23.352;2023-04-24T09:52:15;12.15;;;4.40;;
56830;SDS011;42713;42.676;23.352;2023-04-24T09:54:41;7.57;;;4.00;;
56830;SDS011;42713;42.676;23.352;2023-04-24T09:57:09;10.18;;;4.20;;
56830;SDS011;42713;42.676;23.352;2023-04-24T09:59:35;9.75;;;4.22;;
56830;SDS011;42713;42.676;23.352;2023-04-24T10:02:16;9.50;;;4.07;;
56830;SDS011;42713;42.676;23.352;2023-04-24T10:04:53;12.82;;;4.20;;
56830;SDS011;42713;42.676;23.352;2023-04-24T10:07:20;11.80;;;4.00;;
56830;SDS011;42713;42.676;23.352;2023-04-24T10:09:46;8.63;;;4.10;;
56830;SDS011;42713;42.676;23.352;2023-04-24T10:12:11;9.90;;;4.25;;
56830;SDS011;42713;42.676;23.352;2023-04-24T10:14:38;10.43;;;4.00;;
56830;SDS011;42713;42.676;23.352;2023-04-24T10:17:04;9.35;;;4.10;;
56830;SDS011;42713;42.676;23.352;2023-04-24T10:19:31;9.13;;;3.70;;
56830;SDS011;42713;42.676;23.352;2023-04-24T10:21:58;10.85;;;4.13;;
56830;SDS011;42713;42.676;23.352;2023-04-24T10:24:24;8.73;;;4.20;;
56830;SDS011;42713;42.676;23.352;2023-04-24T10:26:49;11.02;;;4.00;;
56830;SDS011;42713;42.676;23.352;2023-04-24T10:29:16;10.60;;;4.30;;
56830;SDS011;42713;42.676;23.352;2023-04-24T10:31:42;10.63;;;4.22;;
56830;SDS011;42713;42.676;23.352;2023-04-24T10:34:12;11.75;;;4.25;;
56830;SDS011;42713;42.676;23.352;2023-04-24T10:36:41;13.45;;;4.25;;
56830;SDS011;42713;42.676;23.352;2023-04-24T10:39:11;9.90;;;4.00;;
56830;SDS011;42713;42.676;23.352;2023-04-24T10:41:39;11.55;;;3.90;;
56830;SDS011;42713;42.676;23.352;2023-04-24T10:44:12;11.45;;;4.18;;
56830;SDS011;42713;42.676;23.352;2023-04-24T10:46:44;11.00;;;4.05;;
56830;SDS011;42713;42.676;23.352;2023-04-24T10:49:11;9.70;;;4.15;;
56830;SDS011;42713;42.676;23.352;2023-04-24T10:51:52;7.90;;;3.97;;
56830;SDS011;42713;42.676;23.352;2023-04-24T10:54:22;13.52;;;3.33;;
56830;SDS011;42713;42.676;23.352;2023-04-24T10:56:50;12.52;;;3.70;;
56830;SDS011;42713;42.676;23.352;2023-04-24T10:59:34;10.88;;;3.65;;
56830;SDS011;42713;42.676;23.352;2023-04-24T11:02:03;12.65;;;3.85;;
56830;SDS011;42713;42.676;23.352;2023-04-24T11:04:33;8.32;;;3.45;;
56830;SDS011;42713;42.676;23.352;2023-04-24T11:07:00;9.00;;;4.03;;
56830;SDS011;42713;42.676;23.352;2023-04-24T11:09:27;9.00;;;3.92;;
56830;SDS011;42713;42.676;23.352;2023-04-24T11:12:07;9.80;;;3.58;;
56830;SDS011;42713;42.676;23.352;2023-04-24T11:17:29;12.43;;;3.95;;
56830;SDS011;42713;42.676;23.352;2023-04-24T11:22:35;12.90;;;3.80;;
56830;SDS011;42713;42.676;23.352;2023-04-24T11:25:02;10.10;;;3.85;;
56830;SDS011;42713;42.676;23.352;2023-04-24T11:27:30;10.88;;;3.60;;
56830;SDS011;42713;42.676;23.352;2023-04-24T11:35:15;9.25;;;3.55;;
56830;SDS011;42713;42.676;23.352;2023-04-24T11:37:44;9.77;;;3.53;;
56830;SDS011;42713;42.676;23.352;2023-04-24T11:40:11;7.20;;;2.70;;
56830;SDS011;42713;42.676;23.352;2023-04-24T11:42:41;6.40;;;2.70;;
56830;SDS011;42713;42.676;23.352;2023-04-24T11:45:11;8.75;;;3.22;;
56830;SDS011;42713;42.676;23.352;2023-04-24T11:47:39;7.25;;;3.00;;
56830;SDS011;42713;42.676;23.352;2023-04-24T11:50:06;11.05;;;2.95;;
56830;SDS011;42713;42.676;23.352;2023-04-24T11:52:37;7.72;;;3.20;;
56830;SDS011;42713;42.676;23.352;2023-04-24T11:55:04;7.20;;;3.08;;
56830;SDS011;42713;42.676;23.352;2023-04-24T11:57:32;11.38;;;3.30;;
56830;SDS011;42713;42.676;23.352;2023-04-24T12:00:03;8.07;;;3.00;;
56830;SDS011;42713;42.676;23.352;2023-04-24T12:02:33;7.50;;;3.38;;
56830;SDS011;42713;42.676;23.352;2023-04-24T12:04:58;8.55;;;3.00;;
56830;SDS011;42713;42.676;23.352;2023-04-24T12:07:24;8.93;;;3.20;;
56830;SDS011;42713;42.676;23.352;2023-04-24T12:09:57;10.60;;;3.00;;
56830;SDS011;42713;42.676;23.352;2023-04-24T12:12:27;7.78;;;3.35;;
56830;SDS011;42713;42.676;23.352;2023-04-24T12:14:54;7.65;;;3.20;;
56830;SDS011;42713;42.676;23.352;2023-04-24T12:17:28;5.78;;;2.88;;
56830;SDS011;42713;42.676;23.352;2023-04-24T12:22:25;8.23;;;3.42;;
56830;SDS011;42713;42.676;23.352;2023-04-24T12:25:00;10.88;;;3.40;;
56830;SDS011;42713;42.676;23.352;2023-04-24T12:27:34;6.43;;;3.08;;
56830;SDS011;42713;42.676;23.352;2023-04-24T12:30:00;9.52;;;3.10;;
56830;SDS011;42713;42.676;23.352;2023-04-24T12:32:26;6.05;;;2.80;;
56830;SDS011;42713;42.676;23.352;2023-04-24T12:34:52;7.22;;;2.60;;
56830;SDS011;42713;42.676;23.352;2023-04-24T12:37:19;7.18;;;2.97;;
56830;SDS011;42713;42.676;23.352;2023-04-24T12:40:06;8.35;;;2.60;;
56830;SDS011;42713;42.676;23.352;2023-04-24T12:42:32;5.90;;;2.50;;
56830;SDS011;42713;42.676;23.352;2023-04-24T12:44:59;10.15;;;3.08;;
56830;SDS011;42713;42.676;23.352;2023-04-24T12:47:27;8.05;;;2.60;;
56830;SDS011;42713;42.676;23.352;2023-04-24T12:49:53;6.40;;;2.72;;
56830;SDS011;42713;42.676;23.352;2023-04-24T12:52:20;6.18;;;2.90;;
56830;SDS011;42713;42.676;23.352;2023-04-24T12:54:47;7.80;;;2.95;;
56830;SDS011;42713;42.676;23.352;2023-04-24T12:57:13;8.38;;;2.80;;
56830;SDS011;42713;42.676;23.352;2023-04-24T12:59:38;7.72;;;3.00;;
56830;SDS011;42713;42.676;23.352;2023-04-24T13:02:05;7.07;;;2.80;;
56830;SDS011;42713;42.676;23.352;2023-04-24T13:04:31;9.15;;;3.10;;
56830;SDS011;42713;42.676;23.352;2023-04-24T13:06:57;8.00;;;2.95;;
56830;SDS011;42713;42.676;23.352;2023-04-24T13:09:23;8.98;;;3.28;;
56830;SDS011;42713;42.676;23.352;2023-04-24T13:11:49;7.22;;;3.00;;
56830;SDS011;42713;42.676;23.352;2023-04-24T13:14:15;7.00;;;2.90;;
56830;SDS011;42713;42.676;23.352;2023-04-24T13:16:40;8.93;;;2.95;;
56830;SDS011;42713;42.676;23.352;2023-04-24T13:19:06;8.43;;;3.40;;
56830;SDS011;42713;42.676;23.352;2023-04-24T13:21:32;9.55;;;3.25;;
56830;SDS011;42713;42.676;23.352;2023-04-24T13:23:58;8.75;;;3.15;;
56830;SDS011;42713;42.676;23.352;2023-04-24T13:26:24;5.85;;;2.75;;
56830;SDS011;42713;42.676;23.352;2023-04-24T13:28:49;7.50;;;3.10;;
56830;SDS011;42713;42.676;23.352;2023-04-24T13:31:14;8.20;;;3.05;;
56830;SDS011;42713;42.676;23.352;2023-04-24T13:33:40;7.45;;;3.20;;
56830;SDS011;42713;42.676;23.352;2023-04-24T13:36:06;11.60;;;3.25;;
56830;SDS011;42713;42.676;23.352;2023-04-24T13:38:31;7.28;;;3.17;;
56830;SDS011;42713;42.676;23.352;2023-04-24T13:40:57;9.30;;;3.40;;
56830;SDS011;42713;42.676;23.352;2023-04-24T13:43:22;7.93;;;3.28;;
56830;SDS011;42713;42.676;23.352;2023-04-24T13:45:48;10.60;;;3.22;;
56830;SDS011;42713;42.676;23.352;2023-04-24T13:48:14;9.63;;;3.10;;
56830;SDS011;42713;42.676;23.352;2023-04-24T13:50:43;9.48;;;3.33;;
56830;SDS011;42713;42.676;23.352;2023-04-24T13:53:09;7.47;;;2.85;;
56830;SDS011;42713;42.676;23.352;2023-04-24T13:55:35;6.30;;;2.67;;
56830;SDS011;42713;42.676;23.352;2023-04-24T13:58:01;9.48;;;3.00;;
56830;SDS011;42713;42.676;23.352;2023-04-24T14:00:27;10.88;;;3.78;;
56830;SDS011;42713;42.676;23.352;2023-04-24T14:02:53;8.60;;;3.40;;
56830;SDS011;42713;42.676;23.352;2023-04-24T14:05:18;10.85;;;3.15;;
56830;SDS011;42713;42.676;23.352;2023-04-24T14:07:44;8.98;;;2.80;;
56830;SDS011;42713;42.676;23.352;2023-04-24T14:10:09;9.07;;;2.80;;
56830;SDS011;42713;42.676;23.352;2023-04-24T14:12:36;8.07;;;3.03;;
56830;SDS011;42713;42.676;23.352;2023-04-24T14:15:03;9.20;;;3.30;;
56830;SDS011;42713;42.676;23.352;2023-04-24T14:17:29;7.35;;;2.83;;
56830;SDS011;42713;42.676;23.352;2023-04-24T14:19:55;11.35;;;2.88;;
56830;SDS011;42713;42.676;23.352;2023-04-24T14:22:21;8.35;;;2.47;;
56830;SDS011;42713;42.676;23.352;2023-04-24T14:24:47;8.70;;;2.60;;
56830;SDS011;42713;42.676;23.352;2023-04-24T14:27:12;8.30;;;2.97;;
56830;SDS011;42713;42.676;23.352;2023-04-24T14:29:38;8.00;;;2.67;;
56830;SDS011;42713;42.676;23.352;2023-04-24T14:32:03;8.75;;;2.42;;
56830;SDS011;42713;42.676;23.352;2023-04-24T14:34:29;5.78;;;2.28;;
56830;SDS011;42713;42.676;23.352;2023-04-24T14:36:54;7.68;;;2.50;;
56830;SDS011;42713;42.676;23.352;2023-04-24T14:39:20;7.82;;;2.90;;
56830;SDS011;42713;42.676;23.352;2023-04-24T14:41:45;7.90;;;2.55;;